Time;durP1;ratioP1;P1;durP2;ratioP2;P2;SDS_P1;SDS_P2;PMS_P1;PMS_P2;Temp;Humidity;BMP_temperature;BMP_pressure;BME280_temperature;BME280_humidity;BME280_pressure;Samples;Min_cycle;Max_cycle;Signal;HPM_P1;HPM_P2
2021/09/11 00:00:33;;;;;;;11.60;6.53;;;;;;;18.39;43.43;99754.41;5050117;28;20505;-76
2021/09/11 00:02:58;;;;;;;9.25;5.95;;;;;;;18.11;43.27;99714.84;5050861;28;20057;-75
2021/09/11 00:05:24;;;;;;;6.45;5.07;;;;;;;18.30;43.39;99742.41;5051230;28;20017;-75
2021/09/11 00:07:50;;;;;;;8.80;5.38;;;;;;;18.18;43.57;99731.63;5051061;28;20512;-76
2021/09/11 00:10:17;;;;;;;9.40;5.15;;;;;;;17.95;43.32;99681.53;5051071;28;20021;-76
2021/09/11 00:12:43;;;;;;;11.70;5.47;;;;;;;18.06;43.35;99718.19;5051112;28;20490;-76
2021/09/11 00:15:11;;;;;;;8.80;5.90;;;;;;;18.10;43.38;99722.06;5049302;28;20414;-76
2021/09/11 00:17:37;;;;;;;8.40;5.50;;;;;;;18.02;43.32;99722.34;5050901;28;20025;-75
2021/09/11 00:20:03;;;;;;;7.20;4.85;;;;;;;18.25;43.31;99755.63;5050832;28;20027;-75
2021/09/11 00:22:29;;;;;;;11.65;5.60;;;;;;;18.23;43.44;99749.69;5049613;28;20020;-76
2021/09/11 00:24:54;;;;;;;6.90;5.05;;;;;;;18.04;43.88;99728.28;5051124;28;20408;-81
2021/09/11 00:27:20;;;;;;;8.95;5.22;;;;;;;17.82;43.77;99699.53;5050977;28;20023;-81
2021/09/11 00:29:45;;;;;;;7.68;4.70;;;;;;;18.14;43.78;99754.50;5050949;28;20508;-80
2021/09/11 00:32:10;;;;;;;8.40;4.43;;;;;;;17.87;43.83;99713.06;5050920;28;20017;-81
2021/09/11 00:34:36;;;;;;;7.00;3.83;;;;;;;17.69;44.00;99684.47;5051003;28;20090;-81
2021/09/11 00:37:01;;;;;;;6.20;3.88;;;;;;;17.67;44.01;99691.88;5050822;28;20452;-80
2021/09/11 00:39:27;;;;;;;5.07;3.53;;;;;;;17.21;43.83;99630.88;5050990;28;20025;-80
2021/09/11 00:41:53;;;;;;;5.97;3.30;;;;;;;18.06;44.09;99768.97;5049496;28;20402;-81
2021/09/11 00:44:18;;;;;;;6.10;2.90;;;;;;;17.75;44.09;99726.31;5050696;28;20052;-80
2021/09/11 00:46:44;;;;;;;5.70;3.45;;;;;;;17.98;44.24;99763.09;5050920;28;20056;-80
2021/09/11 00:49:10;;;;;;;5.07;3.55;;;;;;;17.28;44.54;99661.81;5050837;28;20017;-80
2021/09/11 00:51:36;;;;;;;6.38;3.40;;;;;;;16.98;44.70;99624.25;5050422;28;20524;-80
2021/09/11 00:54:03;;;;;;;6.03;3.08;;;;;;;17.52;44.57;99718.88;5049422;28;20017;-81
2021/09/11 00:56:29;;;;;;;5.10;3.10;;;;;;;17.43;44.49;99706.84;5050624;28;20468;-80
2021/09/11 00:58:55;;;;;;;6.25;3.42;;;;;;;17.33;44.84;99701.19;5050761;28;20150;-80
2021/09/11 01:01:21;;;;;;;6.28;2.92;;;;;;;17.59;44.97;99743.66;5050695;28;20021;-81
2021/09/11 01:03:46;;;;;;;5.75;2.80;;;;;;;17.22;44.99;99688.56;5050596;28;20025;-82
2021/09/11 01:06:12;;;;;;;5.75;2.67;;;;;;;17.67;45.32;99766.63;5050873;28;20493;-81
2021/09/11 01:08:40;;;;;;;3.83;3.00;;;;;;;16.91;45.21;99649.34;5049369;28;20032;-80
2021/09/11 01:11:07;;;;;;;5.05;3.08;;;;;;;17.56;45.55;99773.47;5050180;28;20017;-81
2021/09/11 01:13:33;;;;;;;5.57;3.03;;;;;;;17.52;45.63;99766.13;5052823;28;20067;-80
2021/09/11 01:15:59;;;;;;;4.38;3.33;;;;;;;17.45;45.69;99774.19;5054018;28;20025;-81
2021/09/11 01:18:25;;;;;;;4.90;3.45;;;;;;;16.68;45.75;99665.91;5053951;28;20124;-79
2021/09/11 01:20:51;;;;;;;6.55;3.13;;;;;;;17.09;45.89;99742.78;5052901;28;20497;-80
2021/09/11 01:23:17;;;;;;;4.55;3.25;;;;;;;17.33;46.00;99783.91;5054019;28;20070;-74
2021/09/11 01:25:42;;;;;;;8.63;3.03;;;;;;;17.32;45.85;99774.28;5053879;28;20417;-75
2021/09/11 01:28:07;;;;;;;4.40;2.90;;;;;;;17.19;45.98;99745.84;5053773;28;20104;-75
2021/09/11 01:30:33;;;;;;;4.32;3.03;;;;;;;17.06;45.78;99722.69;5054047;28;20078;-75
2021/09/11 01:32:58;;;;;;;5.47;2.80;;;;;;;17.21;45.83;99740.28;5053550;28;20021;-76
2021/09/11 01:35:24;;;;;;;4.40;2.95;;;;;;;17.42;45.75;99782.63;5053797;28;20028;-75
2021/09/11 01:37:49;;;;;;;9.38;3.00;;;;;;;17.45;46.03;99777.66;5052578;28;20017;-75
2021/09/11 01:40:15;;;;;;;8.65;3.22;;;;;;;17.45;45.95;99779.53;5053560;28;20025;-75
2021/09/11 01:42:41;;;;;;;4.65;2.92;;;;;;;17.44;45.66;99777.88;5053658;28;20027;-75
2021/09/11 01:45:15;;;;;;;4.75;2.90;;;;;;;17.38;45.80;99779.56;5053519;28;20516;-75
2021/09/11 01:47:41;;;;;;;6.82;3.40;;;;;;;17.35;45.75;99773.84;5053318;28;20132;-74
2021/09/11 01:50:09;;;;;;;3.28;2.50;;;;;;;17.24;45.89;99756.69;5053305;28;20032;-75
2021/09/11 01:52:35;;;;;;;5.32;3.25;;;;;;;17.28;45.71;99765.88;5053373;28;20036;-75
2021/09/11 01:55:01;;;;;;;4.85;2.60;;;;;;;17.28;45.98;99778.41;5053309;28;20055;-76
2021/09/11 01:57:26;;;;;;;5.47;3.47;;;;;;;17.26;45.93;99769.81;5053309;28;20485;-75
2021/09/11 01:59:51;;;;;;;5.57;2.50;;;;;;;17.17;45.96;99758.56;5053417;28;20083;-75
2021/09/11 02:02:17;;;;;;;3.38;2.85;;;;;;;17.22;45.91;99757.94;5053164;28;20028;-76
2021/09/11 02:04:42;;;;;;;4.40;3.15;;;;;;;17.17;45.73;99752.41;5053133;28;20478;-76
2021/09/11 02:07:08;;;;;;;4.88;2.78;;;;;;;17.15;46.06;99756.13;5053412;28;20486;-76
2021/09/11 02:09:35;;;;;;;4.43;2.80;;;;;;;17.04;46.16;99748.78;5051892;28;20508;-75
2021/09/11 02:12:01;;;;;;;4.97;3.05;;;;;;;16.64;46.32;99689.50;5052968;28;20028;-76
2021/09/11 02:14:27;;;;;;;5.03;2.42;;;;;;;16.80;46.38;99726.34;5052819;28;20052;-76
2021/09/11 02:16:52;;;;;;;3.42;2.58;;;;;;;17.06;46.44;99768.06;5052745;28;20032;-75
2021/09/11 02:19:18;;;;;;;4.75;2.90;;;;;;;16.71;46.72;99719.63;5053016;28;20498;-75
2021/09/11 02:21:43;;;;;;;5.13;2.65;;;;;;;16.88;46.91;99738.63;5051649;28;20473;-75
2021/09/11 02:24:09;;;;;;;7.15;2.80;;;;;;;16.96;46.76;99750.88;5050668;28;20485;-76
2021/09/11 02:26:35;;;;;;;6.05;2.80;;;;;;;16.73;46.74;99724.75;5052700;28;20029;-75
2021/09/11 02:29:02;;;;;;;5.72;3.25;;;;;;;16.78;47.20;99722.25;5051438;28;20028;-76
2021/09/11 02:31:28;;;;;;;5.93;2.72;;;;;;;16.96;46.95;99741.03;5052506;28;20051;-76
2021/09/11 02:33:53;;;;;;;4.22;2.92;;;;;;;16.73;46.74;99704.25;5052590;28;20466;-76
2021/09/11 02:36:19;;;;;;;4.90;2.97;;;;;;;17.08;46.85;99759.84;5052733;28;20060;-75
2021/09/11 02:38:45;;;;;;;4.38;3.10;;;;;;;17.18;46.87;99776.22;5052586;28;20021;-75
2021/09/11 02:41:11;;;;;;;5.13;2.92;;;;;;;16.59;46.74;99668.00;5052544;28;20522;-75
2021/09/11 02:43:36;;;;;;;8.85;2.60;;;;;;;17.24;46.90;99774.53;5052426;28;20046;-76
2021/09/11 02:46:02;;;;;;;2.72;2.42;;;;;;;17.16;46.79;99775.63;5052213;28;20025;-76
2021/09/11 02:48:28;;;;;;;3.92;2.92;;;;;;;16.98;46.67;99740.81;5052214;28;20114;-76
2021/09/11 02:50:53;;;;;;;5.72;2.90;;;;;;;16.64;46.85;99710.00;5052259;28;20028;-75
2021/09/11 02:53:19;;;;;;;4.13;2.78;;;;;;;16.66;47.30;99724.78;5052394;28;20079;-76
2021/09/11 02:55:44;;;;;;;5.13;3.17;;;;;;;16.66;47.40;99727.44;5052098;28;20021;-76
2021/09/11 02:58:10;;;;;;;5.97;2.60;;;;;;;16.56;47.44;99723.56;5052102;28;20032;-75
2021/09/11 03:00:35;;;;;;;6.55;3.15;;;;;;;16.38;47.34;99700.28;5052048;28;20478;-76
2021/09/11 03:03:01;;;;;;;6.18;3.10;;;;;;;16.68;47.90;99759.22;5051964;28;20395;-75
2021/09/11 03:05:26;;;;;;;6.05;2.95;;;;;;;16.53;47.51;99733.63;5050637;28;20452;-76
2021/09/11 03:07:52;;;;;;;5.68;3.00;;;;;;;16.38;47.85;99716.28;5051902;28;20017;-74
2021/09/11 03:10:18;;;;;;;5.55;2.83;;;;;;;16.72;47.90;99787.09;5050633;28;20051;-77
2021/09/11 03:12:43;;;;;;;4.65;2.70;;;;;;;16.64;47.96;99774.00;5052037;28;20025;-75
2021/09/11 03:15:09;;;;;;;7.57;3.25;;;;;;;16.55;47.95;99761.94;5051597;28;20053;-75
2021/09/11 03:17:35;;;;;;;3.22;2.80;;;;;;;16.13;47.87;99706.28;5051756;28;20086;-76
2021/09/11 03:20:00;;;;;;;4.50;2.90;;;;;;;16.59;48.14;99774.63;5051603;28;20452;-76
2021/09/11 03:22:26;;;;;;;3.80;2.83;;;;;;;16.46;48.20;99767.50;5051507;28;20032;-76
2021/09/11 03:24:51;;;;;;;7.05;3.42;;;;;;;16.09;47.86;99717.59;5050221;28;20029;-76
2021/09/11 03:27:17;;;;;;;4.10;2.95;;;;;;;16.08;48.10;99726.59;5051448;28;20036;-76
2021/09/11 03:29:42;;;;;;;5.90;2.88;;;;;;;16.49;47.83;99796.38;5051366;28;20025;-77
2021/09/11 03:32:08;;;;;;;4.40;2.75;;;;;;;16.10;47.86;99727.22;5051397;28;20103;-76
2021/09/11 03:34:34;;;;;;;7.15;2.70;;;;;;;16.40;47.93;99773.66;5051111;28;20060;-76
2021/09/11 03:37:00;;;;;;;7.80;2.88;;;;;;;16.46;48.12;99780.00;5051311;28;20052;-76
2021/09/11 03:39:25;;;;;;;7.25;3.33;;;;;;;15.82;47.64;99685.69;5051334;28;20028;-75
2021/09/11 03:41:51;;;;;;;3.78;2.97;;;;;;;16.20;47.92;99733.72;5050236;28;20414;-75
2021/09/11 03:44:16;;;;;;;4.53;2.97;;;;;;;16.45;47.64;99784.50;5051317;28;20029;-75
2021/09/11 03:46:42;;;;;;;5.95;3.55;;;;;;;15.96;47.59;99712.28;5051356;28;20025;-75
2021/09/11 03:49:07;;;;;;;5.30;3.25;;;;;;;16.22;47.83;99768.16;5051350;28;20137;-76
2021/09/11 03:51:34;;;;;;;9.18;3.63;;;;;;;16.35;48.07;99789.47;5051063;28;20032;-74
2021/09/11 03:54:00;;;;;;;6.28;2.92;;;;;;;16.35;48.11;99792.13;5051136;28;20013;-76
2021/09/11 03:56:25;;;;;;;5.68;3.53;;;;;;;16.35;47.92;99785.94;5051473;28;20112;-76
2021/09/11 03:58:51;;;;;;;6.05;3.17;;;;;;;16.34;48.41;99792.31;5051263;28;20028;-75
2021/09/11 04:01:16;;;;;;;7.45;4.25;;;;;;;16.34;48.05;99803.78;5051290;28;20029;-76
2021/09/11 04:03:41;;;;;;;7.15;3.55;;;;;;;16.28;48.17;99782.50;5051084;28;20237;-76
2021/09/11 04:06:07;;;;;;;4.82;3.28;;;;;;;15.94;48.17;99731.13;5049783;28;20027;-75
2021/09/11 04:08:32;;;;;;;6.03;3.33;;;;;;;16.00;48.35;99737.47;5051231;28;20037;-75
2021/09/11 04:10:59;;;;;;;6.28;3.60;;;;;;;16.29;47.95;99790.28;5049989;28;20116;-75
2021/09/11 04:13:24;;;;;;;7.05;3.45;;;;;;;16.19;48.22;99781.91;5051151;28;20025;-75
2021/09/11 04:15:51;;;;;;;5.00;3.88;;;;;;;15.81;48.31;99739.16;5051004;28;20029;-76
2021/09/11 04:18:16;;;;;;;4.78;3.33;;;;;;;15.88;48.32;99750.63;5051200;28;20028;-76
2021/09/11 04:20:41;;;;;;;7.05;4.32;;;;;;;15.80;48.47;99726.88;5051133;28;20135;-75
2021/09/11 04:23:07;;;;;;;7.47;4.70;;;;;;;15.97;48.39;99764.53;5051301;28;20120;-76
2021/09/11 04:25:32;;;;;;;9.70;5.07;;;;;;;16.25;48.52;99794.38;5049573;28;20104;-76
2021/09/11 04:27:58;;;;;;;7.97;4.85;;;;;;;16.02;48.46;99764.72;5050793;28;20036;-75
2021/09/11 04:30:24;;;;;;;8.80;5.13;;;;;;;16.31;48.66;99796.22;5050800;28;20033;-74
2021/09/11 04:32:49;;;;;;;8.55;5.05;;;;;;;16.12;48.64;99765.94;5050957;28;20045;-76
2021/09/11 04:35:14;;;;;;;7.20;4.30;;;;;;;16.41;48.66;99803.81;5050902;28;20115;-76
2021/09/11 04:37:40;;;;;;;9.15;5.30;;;;;;;16.13;48.65;99751.59;5050876;28;20029;-75
2021/09/11 04:40:06;;;;;;;11.45;5.30;;;;;;;16.12;48.70;99752.59;5050896;28;20031;-76
2021/09/11 04:42:31;;;;;;;7.00;5.10;;;;;;;16.43;48.51;99802.56;5050970;28;20418;-76
2021/09/11 04:44:57;;;;;;;8.68;5.07;;;;;;;16.36;48.51;99783.09;5050801;28;20032;-75
2021/09/11 04:47:22;;;;;;;5.30;4.53;;;;;;;15.92;48.27;99708.41;5053795;28;20408;-76
2021/09/11 04:49:48;;;;;;;7.55;4.10;;;;;;;16.17;48.48;99746.66;5054920;28;20086;-76
2021/09/11 04:52:13;;;;;;;7.63;4.45;;;;;;;16.46;48.33;99796.00;5054358;28;20528;-76
2021/09/11 04:54:39;;;;;;;7.28;4.03;;;;;;;16.13;48.59;99745.44;5054454;28;20032;-75
2021/09/11 04:57:04;;;;;;;10.77;4.65;;;;;;;16.36;48.26;99771.63;5054518;28;20034;-76
2021/09/11 04:59:30;;;;;;;10.10;5.53;;;;;;;16.45;48.43;99781.84;5054554;28;20032;-77
2021/09/11 05:01:56;;;;;;;14.23;7.80;;;;;;;16.26;48.18;99740.06;5054441;28;20412;-76
2021/09/11 05:04:22;;;;;;;14.82;10.07;;;;;;;16.64;48.01;99788.13;5054229;28;20055;-75
2021/09/11 05:06:47;;;;;;;12.27;6.05;;;;;;;16.63;48.32;99791.81;5054356;28;20067;-76
2021/09/11 05:09:13;;;;;;;15.48;9.25;;;;;;;16.34;48.01;99745.16;5054341;28;20037;-76
2021/09/11 05:11:38;;;;;;;13.30;9.95;;;;;;;16.16;47.83;99713.06;5054436;28;20024;-76
2021/09/11 05:14:04;;;;;;;13.30;10.10;;;;;;;16.23;47.92;99713.84;5054035;28;20483;-76
2021/09/11 05:16:29;;;;;;;13.85;10.15;;;;;;;16.77;47.96;99788.09;5054135;28;20487;-75
2021/09/11 05:18:55;;;;;;;10.45;8.07;;;;;;;16.93;47.54;99799.31;5052797;28;20527;-75
2021/09/11 05:21:20;;;;;;;12.52;7.25;;;;;;;17.03;47.61;99805.81;5054174;28;20025;-76
2021/09/11 05:23:46;;;;;;;11.95;7.03;;;;;;;16.94;47.47;99782.28;5054095;28;20021;-81
2021/09/11 05:26:11;;;;;;;11.07;6.00;;;;;;;17.03;47.23;99778.34;5053800;28;20028;-80
2021/09/11 05:28:36;;;;;;;8.27;5.55;;;;;;;17.03;47.47;99771.16;5053660;28;20025;-81
2021/09/11 05:31:02;;;;;;;8.65;5.97;;;;;;;17.38;47.21;99822.28;5053810;28;20024;-81
2021/09/11 05:33:27;;;;;;;9.65;5.10;;;;;;;17.34;47.03;99777.53;5053924;28;20028;-81
2021/09/11 05:35:53;;;;;;;7.82;5.22;;;;;;;16.98;47.12;99716.81;5053826;28;20112;-81
2021/09/11 05:38:18;;;;;;;9.73;5.40;;;;;;;17.35;46.95;99758.66;5052261;28;20029;-81
2021/09/11 05:40:44;;;;;;;5.90;4.28;;;;;;;17.73;46.99;99797.81;5053645;28;20021;-82
2021/09/11 05:43:09;;;;;;;9.45;5.68;;;;;;;17.82;46.78;99809.03;5053338;28;20032;-80
2021/09/11 05:45:35;;;;;;;7.85;4.80;;;;;;;17.54;46.62;99737.34;5053457;28;20060;-80
2021/09/11 05:48:00;;;;;;;6.35;4.95;;;;;;;17.99;46.49;99797.59;5053640;28;20425;-80
2021/09/11 05:50:25;;;;;;;7.40;5.18;;;;;;;17.47;46.25;99702.69;5053476;28;20507;-81
2021/09/11 05:52:51;;;;;;;10.90;5.15;;;;;;;18.18;46.01;99792.28;5053479;28;20036;-81
2021/09/11 05:55:16;;;;;;;7.43;5.03;;;;;;;18.26;46.03;99798.16;5053581;28;20033;-81
2021/09/11 05:57:42;;;;;;;8.68;4.80;;;;;;;18.07;46.04;99740.38;5053532;28;20032;-81
2021/09/11 06:00:08;;;;;;;11.00;4.65;;;;;;;18.39;45.77;99784.66;5053420;28;20029;-80
2021/09/11 06:02:34;;;;;;;7.70;4.55;;;;;;;18.34;45.95;99773.81;5053404;28;20028;-81
2021/09/11 06:04:59;;;;;;;5.72;3.80;;;;;;;18.33;45.71;99761.47;5053104;28;20474;-81
2021/09/11 06:07:24;;;;;;;5.13;3.97;;;;;;;18.35;45.67;99753.22;5051847;28;20029;-81
2021/09/11 06:09:50;;;;;;;5.75;4.03;;;;;;;18.14;45.42;99706.41;5053010;28;20079;-82
2021/09/11 06:12:15;;;;;;;11.00;4.13;;;;;;;18.70;45.38;99785.59;5053041;28;20124;-80
2021/09/11 06:14:41;;;;;;;5.55;3.92;;;;;;;18.50;45.23;99748.31;5053027;28;20421;-80
2021/09/11 06:17:08;;;;;;;8.50;4.38;;;;;;;18.57;45.01;99743.72;5052725;28;20028;-81
2021/09/11 06:19:34;;;;;;;5.97;4.32;;;;;;;18.57;44.96;99727.66;5052810;28;20039;-81
2021/09/11 06:22:00;;;;;;;5.93;4.40;;;;;;;18.71;44.71;99733.72;5052975;28;20078;-81
2021/09/11 06:24:25;;;;;;;7.57;4.53;;;;;;;19.01;44.66;99777.34;5052754;28;20029;-76
2021/09/11 06:26:51;;;;;;;6.10;4.13;;;;;;;19.05;44.35;99765.13;5052663;28;20457;-75
2021/09/11 06:29:16;;;;;;;7.53;4.00;;;;;;;19.28;44.04;99783.13;5052749;28;20040;-76
2021/09/11 06:31:42;;;;;;;16.73;3.65;;;;;;;19.36;43.95;99784.69;5051522;28;20064;-75
2021/09/11 06:34:07;;;;;;;7.65;3.40;;;;;;;19.41;43.67;99765.25;5053062;28;20028;-76
2021/09/11 06:36:33;;;;;;;4.88;3.28;;;;;;;19.42;43.57;99743.59;5052574;28;20096;-75
2021/09/11 06:38:58;;;;;;;5.28;2.65;;;;;;;19.70;43.55;99772.44;5052255;28;20021;-76
2021/09/11 06:41:23;;;;;;;4.13;2.90;;;;;;;19.39;43.21;99717.28;5052476;28;20036;-75
2021/09/11 06:43:49;;;;;;;6.07;2.60;;;;;;;19.82;42.85;99773.25;5052528;28;20565;-75
2021/09/11 06:46:14;;;;;;;4.28;2.55;;;;;;;19.69;43.14;99746.69;5052427;28;20050;-75
2021/09/11 06:48:40;;;;;;;5.28;2.97;;;;;;;19.97;43.07;99778.16;5052451;28;20027;-76
2021/09/11 06:51:05;;;;;;;5.10;2.78;;;;;;;19.62;42.72;99717.34;5052446;28;20056;-75
2021/09/11 06:53:30;;;;;;;3.28;2.47;;;;;;;19.95;42.50;99753.44;5052260;28;20028;-76
2021/09/11 06:55:56;;;;;;;4.40;2.65;;;;;;;19.94;42.12;99741.09;5052078;28;20032;-76
2021/09/11 06:58:22;;;;;;;3.95;2.60;;;;;;;20.05;42.39;99747.50;5052024;28;20039;-75
2021/09/11 07:00:47;;;;;;;2.90;2.50;;;;;;;20.06;42.02;99731.19;5050779;28;20021;-76
2021/09/11 07:03:12;;;;;;;3.38;2.28;;;;;;;20.43;41.99;99784.56;5051757;28;20032;-76
2021/09/11 07:05:38;;;;;;;5.55;2.50;;;;;;;20.07;41.51;99708.72;5051944;28;20025;-76
2021/09/11 07:08:03;;;;;;;3.78;2.53;;;;;;;20.50;41.58;99767.28;5051887;28;20211;-74
2021/09/11 07:10:29;;;;;;;4.50;2.67;;;;;;;20.31;41.08;99722.88;5051420;28;20032;-76
2021/09/11 07:12:54;;;;;;;5.82;2.65;;;;;;;20.77;40.77;99772.09;5051882;28;20047;-76
2021/09/11 07:15:20;;;;;;;3.50;2.53;;;;;;;20.58;40.67;99756.19;5051702;28;20064;-77
2021/09/11 07:17:46;;;;;;;7.10;3.55;;;;;;;20.86;40.47;99786.81;5051733;28;20021;-76
2021/09/11 07:20:12;;;;;;;3.92;2.47;;;;;;;20.74;40.21;99753.78;5051938;28;20025;-75
2021/09/11 07:22:37;;;;;;;3.83;3.17;;;;;;;20.91;39.77;99757.38;5051631;28;20482;-76
2021/09/11 07:25:03;;;;;;;5.32;3.15;;;;;;;21.09;39.54;99791.25;5051637;28;20036;-76
2021/09/11 07:27:29;;;;;;;6.82;3.38;;;;;;;21.13;39.40;99777.09;5050287;28;20029;-74
2021/09/11 07:29:56;;;;;;;6.38;3.00;;;;;;;21.20;39.36;99785.00;5051744;28;20028;-76
2021/09/11 07:32:22;;;;;;;5.07;2.75;;;;;;;21.29;39.41;99786.28;5051685;28;20421;-76
2021/09/11 07:34:48;;;;;;;5.88;4.20;;;;;;;21.36;39.12;99781.56;5051618;28;20028;-75
2021/09/11 07:37:13;;;;;;;4.00;3.03;;;;;;;21.27;38.90;99745.44;5051324;28;20029;-77
2021/09/11 07:39:39;;;;;;;6.63;2.80;;;;;;;21.33;38.86;99738.25;5051216;28;20047;-75
2021/09/11 07:42:05;;;;;;;4.40;3.25;;;;;;;21.66;38.59;99769.72;5051271;28;20049;-76
2021/09/11 07:44:31;;;;;;;5.38;2.92;;;;;;;21.82;38.41;99774.28;5051114;28;20071;-76
2021/09/11 07:46:56;;;;;;;3.38;2.80;;;;;;;21.78;38.51;99743.56;5051403;28;20025;-76
2021/09/11 07:49:22;;;;;;;3.65;3.00;;;;;;;21.58;38.37;99690.34;5051243;28;20013;-77
2021/09/11 07:51:47;;;;;;;5.25;3.08;;;;;;;21.96;38.21;99743.28;5050013;28;20556;-75
2021/09/11 07:54:12;;;;;;;8.30;2.67;;;;;;;21.85;37.83;99718.16;5051088;28;20108;-76
2021/09/11 07:56:38;;;;;;;3.90;2.78;;;;;;;22.24;37.83;99765.75;5051177;28;20448;-76
2021/09/11 07:59:03;;;;;;;7.70;3.65;;;;;;;22.30;37.36;99754.84;5051141;28;20021;-75
2021/09/11 08:01:29;;;;;;;4.60;2.90;;;;;;;22.12;37.10;99723.66;5050918;28;20505;-77
2021/09/11 08:03:54;;;;;;;10.80;3.00;;;;;;;22.36;36.83;99737.69;5050919;28;20024;-75
2021/09/11 08:06:20;;;;;;;4.85;2.85;;;;;;;22.45;36.53;99738.88;5050996;28;20028;-76
2021/09/11 08:08:46;;;;;;;4.05;2.78;;;;;;;22.60;36.36;99746.31;5051086;28;20029;-76
2021/09/11 08:11:11;;;;;;;7.78;2.65;;;;;;;22.38;36.30;99702.47;5051000;28;20032;-75
2021/09/11 08:13:37;;;;;;;5.35;3.22;;;;;;;22.76;36.13;99742.75;5050873;28;20041;-76
2021/09/11 08:16:02;;;;;;;4.20;2.95;;;;;;;22.88;35.65;99747.19;5050919;28;20025;-75
2021/09/11 08:18:28;;;;;;;5.45;3.17;;;;;;;22.99;35.29;99735.47;5049416;28;20017;-76
2021/09/11 08:20:53;;;;;;;5.75;4.00;;;;;;;22.77;35.29;99684.31;5051474;28;20037;-74
2021/09/11 08:23:19;;;;;;;5.15;3.22;;;;;;;22.82;34.99;99676.31;5054893;28;20071;-76
2021/09/11 08:25:46;;;;;;;15.27;8.30;;;;;;;23.22;34.58;99737.03;5054723;28;20515;-74
2021/09/11 08:28:13;;;;;;;6.97;3.05;;;;;;;23.03;34.35;99688.09;5054352;28;20108;-76
2021/09/11 08:30:39;;;;;;;7.47;3.20;;;;;;;23.15;34.00;99688.78;5054715;28;20067;-75
2021/09/11 08:33:04;;;;;;;6.13;3.80;;;;;;;23.34;33.51;99708.84;5054882;28;20029;-75
2021/09/11 08:35:30;;;;;;;4.40;2.88;;;;;;;23.39;33.48;99697.31;5054741;28;20115;-76
2021/09/11 08:37:55;;;;;;;4.20;3.20;;;;;;;23.69;33.15;99716.41;5054606;28;20021;-76
2021/09/11 08:40:21;;;;;;;8.00;5.47;;;;;;;23.83;33.10;99724.91;5053962;28;20547;-76
2021/09/11 08:42:48;;;;;;;4.78;3.20;;;;;;;23.94;32.90;99718.50;5054229;28;20095;-75
2021/09/11 08:45:14;;;;;;;5.57;3.65;;;;;;;24.11;32.41;99721.00;5054499;28;20105;-74
2021/09/11 08:47:47;;;;;;;5.40;3.50;;;;;;;24.28;32.14;99710.03;5054518;28;20098;-76
2021/09/11 08:50:15;;;;;;;8.50;5.50;;;;;;;24.38;31.88;99704.69;5054551;28;20025;-76
2021/09/11 08:52:47;;;;;;;6.88;5.50;;;;;;;24.29;31.14;99684.69;5054252;28;20151;-75
2021/09/11 08:55:14;;;;;;;7.78;3.20;;;;;;;24.68;31.37;99712.09;5054003;28;20508;-76
2021/09/11 08:57:39;;;;;;;5.65;4.38;;;;;;;24.78;31.26;99690.50;5054353;28;20108;-75
2021/09/11 09:00:08;;;;;;;4.13;3.05;;;;;;;24.95;30.70;99680.25;5053049;28;20120;-74
2021/09/11 09:02:34;;;;;;;5.35;3.63;;;;;;;25.18;30.48;99689.75;5054146;28;20082;-74
2021/09/11 09:05:02;;;;;;;5.45;3.53;;;;;;;25.24;30.12;99672.47;5052746;28;20024;-75
2021/09/11 09:07:39;;;;;;;7.82;5.55;;;;;;;25.43;29.65;99688.16;5054043;28;20109;-75
2021/09/11 09:10:06;;;;;;;6.95;3.90;;;;;;;25.53;28.81;99688.94;5054067;28;20523;-75
2021/09/11 09:12:36;;;;;;;5.68;3.40;;;;;;;25.32;28.44;99639.50;5054226;28;20021;-75
2021/09/11 09:15:19;;;;;;;4.78;3.70;;;;;;;25.73;26.17;99677.31;5053034;28;20103;-76
2021/09/11 09:17:47;;;;;;;5.68;3.58;;;;;;;25.93;27.54;99677.25;5051546;28;20061;-76
2021/09/11 09:20:14;;;;;;;4.47;2.90;;;;;;;26.13;27.18;99676.41;5053003;28;20443;-75
2021/09/11 09:22:40;;;;;;;8.60;5.20;;;;;;;26.39;27.00;99677.13;5051416;28;20029;-75
2021/09/11 09:25:20;;;;;;;6.45;3.38;;;;;;;26.44;26.34;99654.63;5052671;28;20436;-74
2021/09/11 09:27:51;;;;;;;5.45;3.10;;;;;;;26.75;25.31;99672.28;5052561;28;20079;-74
2021/09/11 09:30:22;;;;;;;5.32;3.03;;;;;;;26.82;25.63;99672.00;5051280;28;20464;-75
2021/09/11 09:32:49;;;;;;;4.90;4.10;;;;;;;26.95;25.46;99660.53;5052219;28;20090;-74
2021/09/11 09:35:25;;;;;;;4.97;2.88;;;;;;;27.00;22.63;99630.72;5052746;28;20405;-74
2021/09/11 09:38:08;;;;;;;6.72;3.67;;;;;;;27.04;23.38;99617.41;5052413;28;20025;-76
2021/09/11 09:40:44;;;;;;;4.88;2.95;;;;;;;27.51;23.03;99665.50;5052202;28;20025;-73
2021/09/11 09:43:12;;;;;;;4.80;2.55;;;;;;;27.53;22.39;99644.34;5052161;28;20489;-74
2021/09/11 09:45:38;;;;;;;5.25;3.20;;;;;;;27.76;22.22;99659.84;5052352;28;20425;-76
2021/09/11 09:48:05;;;;;;;4.32;2.63;;;;;;;27.60;21.50;99609.53;5052210;28;20037;-74
2021/09/11 09:50:39;;;;;;;6.18;4.93;;;;;;;28.10;22.02;99656.19;5052298;28;20032;-74
2021/09/11 09:53:06;;;;;;;3.80;3.40;;;;;;;28.10;21.37;99629.84;5052045;28;20410;-73
2021/09/11 09:55:32;;;;;;;4.82;3.80;;;;;;;28.29;21.16;99651.66;5049875;28;20084;-75
2021/09/11 09:57:57;;;;;;;5.93;3.70;;;;;;;28.41;20.02;99638.44;5050489;28;20438;-74
2021/09/11 10:00:24;;;;;;;4.78;3.70;;;;;;;28.68;20.18;99645.13;5051777;28;20051;-74
2021/09/11 10:02:50;;;;;;;7.10;3.80;;;;;;;28.48;19.86;99581.84;5051654;28;20517;-75
2021/09/11 10:05:18;;;;;;;5.07;3.58;;;;;;;28.66;19.96;99574.78;5051998;28;20021;-74
2021/09/11 10:07:56;;;;;;;6.43;3.15;;;;;;;29.08;19.87;99622.78;5051906;28;20158;-75
2021/09/11 10:10:34;;;;;;;11.20;7.72;;;;;;;29.21;20.04;99642.16;5050679;28;20085;-75
2021/09/11 10:15:56;;;;;;;5.32;3.90;;;;;;;29.72;19.59;99628.44;5107289;27;1300871;-75
2021/09/11 10:18:34;;;;;;;8.48;6.32;;;;;;;29.82;18.04;99635.63;5129674;27;20035;-75
2021/09/11 10:21:40;;;;;;;6.10;3.97;;;;;;;29.82;18.03;99632.91;5129745;27;20035;-74
2021/09/11 10:24:15;;;;;;;13.63;11.35;;;;;;;29.93;19.32;99629.66;5129565;27;20516;-74
2021/09/11 10:26:46;;;;;;;9.85;6.25;;;;;;;30.25;19.11;99626.00;5129539;27;20030;-74
2021/09/11 10:29:33;;;;;;;5.38;4.50;;;;;;;30.50;16.96;99624.66;5129326;28;20491;-75
2021/09/11 10:32:12;;;;;;;12.77;8.93;;;;;;;30.64;18.49;99624.63;5129388;27;20027;-75
2021/09/11 10:34:59;;;;;;;6.72;4.00;;;;;;;30.77;17.86;99631.16;5129163;27;20505;-75
2021/09/11 10:37:57;;;;;;;7.50;4.00;;;;;;;30.92;16.90;99622.59;5129271;28;20030;-74
2021/09/11 10:40:32;;;;;;;7.88;3.78;;;;;;;30.92;17.76;99623.41;5113407;27;20050;-73
2021/09/11 10:43:09;;;;;;;7.38;5.22;;;;;;;30.87;17.84;99617.25;5129195;27;20098;-75
2021/09/11 10:45:38;;;;;;;7.00;5.57;;;;;;;31.09;18.42;99617.25;5129132;28;20395;-73
2021/09/11 10:48:26;;;;;;;9.68;4.47;;;;;;;30.72;18.07;99536.69;5129031;27;20035;-76
2021/09/11 10:50:52;;;;;;;9.48;6.43;;;;;;;31.42;17.78;99595.16;5128858;28;20587;-75
2021/09/11 10:53:20;;;;;;;8.98;6.13;;;;;;;31.38;17.42;99578.63;5127239;28;20102;-75
2021/09/11 10:55:47;;;;;;;8.57;5.38;;;;;;;31.60;17.07;99600.38;5128636;27;20492;-74
2021/09/11 10:58:26;;;;;;;5.45;3.80;;;;;;;31.39;16.58;99569.31;5128780;27;20011;-75
2021/09/11 11:00:56;;;;;;;7.15;4.30;;;;;;;31.52;16.68;99586.69;5128792;27;20073;-74
2021/09/11 11:03:22;;;;;;;5.13;3.83;;;;;;;31.67;16.84;99593.66;5116698;27;20032;-75
2021/09/11 11:06:01;;;;;;;9.63;5.32;;;;;;;31.71;16.97;99592.72;5108150;28;20283;-75
2021/09/11 11:08:29;;;;;;;6.60;4.20;;;;;;;31.57;16.39;99587.34;5108138;28;20023;-75
2021/09/11 11:10:55;;;;;;;8.27;5.10;;;;;;;31.13;16.53;99543.78;5107019;28;20030;-75
2021/09/11 11:13:22;;;;;;;10.55;4.93;;;;;;;31.41;16.52;99575.25;5108042;28;20016;-75
2021/09/11 11:15:58;;;;;;;7.30;6.10;;;;;;;31.63;16.14;99588.00;5107866;28;20052;-75
2021/09/11 11:18:28;;;;;;;10.10;7.70;;;;;;;31.68;16.72;99571.50;5107974;28;20020;-76
2021/09/11 11:20:54;;;;;;;9.82;6.78;;;;;;;31.76;16.78;99575.41;5108048;28;20058;-75
2021/09/11 11:23:20;;;;;;;7.28;4.95;;;;;;;31.59;17.01;99524.25;5107877;28;20453;-76
2021/09/11 11:25:49;;;;;;;7.32;4.28;;;;;;;31.68;16.43;99507.91;5101937;28;20102;-75
2021/09/11 11:28:16;;;;;;;13.73;9.73;;;;;;;31.75;16.58;99522.72;5094224;28;20032;-75
2021/09/11 11:30:42;;;;;;;8.45;5.18;;;;;;;32.04;16.58;99549.44;5094071;28;20028;-75
2021/09/11 11:33:08;;;;;;;10.55;4.68;;;;;;;32.16;16.72;99562.47;5093965;28;20024;-76